Morella, Australia

6:18 PM AEST on December 04, 2016 (GMT +1000)
Longreach | | Change Station

Elev 627 ft 23.43 °S, 144.28 °E | Updated 18 minutes ago

Clear
Clear
104 °F
Feels Like 104 °F
N
7
Wind Variable Wind from NNE

Today
High -- | Low -- °F
--% Chance of Precip.
Yesterday
High -- | Low -- °F
Precip. -- in
Pressure 29.77 in
Visibility 6.2 miles
Clouds
Dew Point 41 °F
Humidity 12%
Rainfall 0.00 in
Snow Depth Not available.
5:30 AM 6:58 PM
Waxing Crescent, 21% visible
METAR YLRE 040800Z AUTO 03006KT 9999 // NCD 40/05 Q1008
Pressure 29.77 in
Visibility 6.2 miles
Clouds
Dew Point 41 °F
Humidity 12%
Rainfall 0.00 in
Snow Depth Not available.
5:30 AM 6:58 PM
Waxing Crescent, 21% visible
METAR YLRE 040800Z AUTO 03006KT 9999 // NCD 40/05 Q1008

10-Day Weather Forecast

×

Almanac

Astronomy

Dec. 04, 2016 Rise Set
Actual Time
Civil Twilight
Nautical Twilight
Astronomical Twilight
Moon
Length of Visible Light
Length of Day
Tomorrow will be .
, % of the Moon is Illuminated

Today's Extremes

Country Highs Country Lows

Community

WunderPhotos

Upload Photos

1,955,587 photos uploaded!

WunderBlog® & News

Nearby

Air Quality

  Air Quality AQ Index Pollutant
Not available.

Snow Depth

Station Depth Elevation

Earthquake Activity

City Distance Mag. Time & Date
Minimum magnitude displayed is 2.5.

Coastal Water Temperatures

Place Temperature

Stations

Nearby Weather Stations

Station Location Temp. Windchill Dew Point Humidity Wind Precip. Elev Updated Type